Time;durP1;ratioP1;P1;durP2;ratioP2;P2;SDS_P1;SDS_P2;PMS_P1;PMS_P2;Temp;Humidity;BMP_temperature;BMP_pressure;BME280_temperature;BME280_humidity;BME280_pressure;Samples;Min_cycle;Max_cycle;Signal;HPM_P1;HPM_P2
2023/06/17 00:00:18;;;;;;;6.97;6.50;;;20.90;37.00;;;;;;20694;6738;277682;-73
2023/06/17 00:02:54;;;;;;;9.47;6.70;;;21.10;36.90;;;;;;20698;6723;278415;-73
2023/06/17 00:05:29;;;;;;;7.20;6.60;;;21.40;36.40;;;;;;20719;6723;281280;-73
2023/06/17 00:08:06;;;;;;;7.32;6.62;;;21.60;36.30;;;;;;20502;6741;305272;-73
2023/06/17 00:10:40;;;;;;;7.27;6.63;;;21.70;36.10;;;;;;20897;6727;119686;-73
2023/06/17 00:13:19;;;;;;;6.60;6.10;;;21.40;36.20;;;;;;20960;6713;121067;-73
2023/06/17 00:15:53;;;;;;;6.90;6.50;;;21.00;36.60;;;;;;20963;6713;116732;-73
2023/06/17 00:18:28;;;;;;;7.00;6.50;;;20.70;37.00;;;;;;20922;6723;120738;-73
2023/06/17 00:21:03;;;;;;;7.97;7.30;;;20.70;37.50;;;;;;20693;6731;306952;-73
2023/06/17 00:23:39;;;;;;;7.50;6.77;;;20.70;37.40;;;;;;20931;6721;117152;-73
2023/06/17 00:26:15;;;;;;;7.53;6.77;;;20.70;37.30;;;;;;20902;6721;117978;-73
2023/06/17 00:28:51;;;;;;;6.93;6.53;;;20.30;37.80;;;;;;20930;6731;120532;-73
2023/06/17 00:31:26;;;;;;;7.47;6.83;;;20.30;37.70;;;;;;20673;6735;304186;-73
2023/06/17 00:34:02;;;;;;;7.30;6.78;;;20.60;38.20;;;;;;20762;6709;308982;-73
2023/06/17 00:36:38;;;;;;;7.87;7.07;;;21.00;37.60;;;;;;20613;6709;284997;-73
2023/06/17 00:39:15;;;;;;;7.87;7.20;;;21.40;36.90;;;;;;20672;6724;335332;-73
2023/06/17 00:41:49;;;;;;;7.37;6.50;;;21.40;36.90;;;;;;20904;6729;117533;-73
2023/06/17 00:44:25;;;;;;;7.67;7.00;;;21.20;37.00;;;;;;20661;6729;276545;-73
2023/06/17 00:47:02;;;;;;;7.57;6.87;;;21.20;37.40;;;;;;20534;6750;312305;-73
2023/06/17 00:49:38;;;;;;;7.22;6.62;;;21.30;37.10;;;;;;20781;6702;275549;-73
2023/06/17 00:52:15;;;;;;;6.70;6.20;;;21.50;37.10;;;;;;20871;6740;117943;-73
2023/06/17 00:54:50;;;;;;;7.57;6.93;;;21.20;37.20;;;;;;20882;6732;116988;-73
2023/06/17 00:57:27;;;;;;;7.20;6.70;;;20.70;37.50;;;;;;20497;6744;312920;-73
2023/06/17 01:00:03;;;;;;;8.23;6.10;;;20.80;38.00;;;;;;20852;6747;117010;-73
2023/06/17 01:02:40;;;;;;;7.05;6.50;;;20.60;38.60;;;;;;20679;6726;308009;-73
2023/06/17 01:05:16;;;;;;;12.13;6.40;;;20.80;38.30;;;;;;20911;6729;116896;-73
2023/06/17 01:07:52;;;;;;;7.23;6.50;;;20.60;38.20;;;;;;20710;6729;117565;-73
2023/06/17 01:10:46;;;;;;;7.60;7.00;;;20.20;38.40;;;;;;20708;6724;305592;-73
2023/06/17 01:13:22;;;;;;;7.80;7.18;;;20.30;39.00;;;;;;19628;7071;290258;-73
2023/06/17 01:15:58;;;;;;;7.20;6.60;;;20.60;38.80;;;;;;20555;6780;117369;-73
2023/06/17 01:18:34;;;;;;;6.97;6.47;;;20.00;39.00;;;;;;20819;6747;127177;-72
2023/06/17 01:21:12;;;;;;;6.93;6.33;;;20.00;39.00;;;;;;20865;6741;116995;-72
2023/06/17 01:23:48;;;;;;;6.83;6.33;;;19.70;39.40;;;;;;20938;6717;116857;-73
2023/06/17 01:26:21;;;;;;;6.53;6.00;;;19.30;40.50;;;;;;20898;6717;116931;-72
2023/06/17 01:28:59;;;;;;;7.77;7.30;;;19.30;39.90;;;;;;20769;6698;305321;-73
2023/06/17 01:31:34;;;;;;;6.67;6.33;;;19.60;40.40;;;;;;20923;6724;117309;-72
2023/06/17 01:34:08;;;;;;;8.07;7.47;;;19.50;40.00;;;;;;20748;6714;276179;-73
2023/06/17 01:36:45;;;;;;;7.27;6.60;;;19.70;40.20;;;;;;20849;6714;117268;-73
2023/06/17 01:39:20;;;;;;;8.23;7.45;;;19.70;39.90;;;;;;20740;6714;294795;-73
2023/06/17 01:41:56;;;;;;;7.27;6.70;;;19.90;40.00;;;;;;20947;6714;116977;-72
2023/06/17 01:44:31;;;;;;;7.70;7.15;;;19.80;39.80;;;;;;20716;6714;299715;-73
2023/06/17 01:47:10;;;;;;;7.53;7.03;;;19.90;39.40;;;;;;20567;6729;279453;-73
2023/06/17 01:49:46;;;;;;;7.78;7.12;;;20.30;38.80;;;;;;20711;6722;277819;-72
2023/06/17 01:52:22;;;;;;;7.87;7.18;;;20.70;37.90;;;;;;20714;6722;304937;-72
2023/06/17 01:54:58;;;;;;;6.80;6.40;;;20.70;37.90;;;;;;20957;6706;116806;-72
2023/06/17 01:57:33;;;;;;;6.80;6.27;;;20.40;38.00;;;;;;20831;6699;117011;-72
2023/06/17 02:00:12;;;;;;;7.00;6.40;;;20.00;38.50;;;;;;20949;6714;119610;-72
2023/06/17 02:02:46;;;;;;;7.30;6.73;;;19.70;38.90;;;;;;20737;6714;282195;-73
2023/06/17 02:05:22;;;;;;;7.68;7.28;;;19.90;39.90;;;;;;20725;6714;314631;-73
2023/06/17 02:07:59;;;;;;;7.83;7.30;;;20.30;39.50;;;;;;20609;6714;307840;-72
2023/06/17 02:10:35;;;;;;;7.67;7.07;;;19.90;39.50;;;;;;20889;6729;117295;-73
2023/06/17 02:13:11;;;;;;;7.27;6.43;;;19.90;39.50;;;;;;20954;6714;119605;-73
2023/06/17 02:15:47;;;;;;;7.50;6.90;;;19.40;40.00;;;;;;20952;6714;117180;-73
2023/06/17 02:18:24;;;;;;;7.85;7.25;;;19.10;40.40;;;;;;20744;6714;275803;-72
2023/06/17 02:20:59;;;;;;;7.70;7.00;;;19.30;41.10;;;;;;20730;6714;306323;-72
2023/06/17 02:23:35;;;;;;;7.60;7.10;;;19.60;40.70;;;;;;20743;6714;276315;-72
2023/06/17 02:26:10;;;;;;;7.87;7.13;;;19.80;40.20;;;;;;20715;6714;308347;-73
2023/06/17 02:28:48;;;;;;;7.60;7.10;;;19.90;39.90;;;;;;20758;6699;334667;-73
2023/06/17 02:31:22;;;;;;;7.13;6.57;;;20.00;39.70;;;;;;20954;6714;122807;-72
2023/06/17 02:33:58;;;;;;;7.50;7.10;;;19.60;39.90;;;;;;20743;6714;276682;-73
2023/06/17 02:36:37;;;;;;;7.75;7.25;;;19.70;40.30;;;;;;20641;6717;312487;-73
2023/06/17 02:39:10;;;;;;;7.00;6.50;;;19.70;40.30;;;;;;20911;6729;119730;-72
2023/06/17 02:41:46;;;;;;;7.13;6.67;;;19.40;40.30;;;;;;20902;6729;116884;-72
2023/06/17 02:44:22;;;;;;;7.87;7.30;;;19.10;41.20;;;;;;20724;6717;281147;-72
2023/06/17 02:46:57;;;;;;;8.23;7.62;;;19.00;41.10;;;;;;20646;6709;308313;-73
2023/06/17 02:49:34;;;;;;;7.60;7.13;;;19.10;40.80;;;;;;20950;6714;116788;-72
2023/06/17 02:52:09;;;;;;;8.70;7.90;;;19.10;40.80;;;;;;20732;6714;279554;-73
2023/06/17 02:54:45;;;;;;;8.13;7.63;;;19.10;41.20;;;;;;20969;6714;118951;-72
2023/06/17 02:57:20;;;;;;;8.80;8.17;;;18.90;41.20;;;;;;20560;6729;308590;-72
2023/06/17 02:59:56;;;;;;;8.48;7.70;;;18.90;41.60;;;;;;20734;6714;306726;-72
2023/06/17 03:02:32;;;;;;;8.43;7.83;;;19.10;41.40;;;;;;20710;6717;306597;-72
2023/06/17 03:05:07;;;;;;;8.45;7.93;;;19.30;41.00;;;;;;20688;6729;335460;-72
2023/06/17 03:07:43;;;;;;;7.50;7.03;;;19.40;40.80;;;;;;20767;6728;117306;-72
2023/06/17 03:10:20;;;;;;;8.13;7.63;;;19.00;41.20;;;;;;20667;6736;276695;-72
2023/06/17 03:12:55;;;;;;;8.45;7.90;;;19.00;41.20;;;;;;20701;6722;276567;-72
2023/06/17 03:15:30;;;;;;;7.60;7.00;;;19.10;41.20;;;;;;20958;6711;117321;-72
2023/06/17 03:18:06;;;;;;;8.93;8.13;;;18.80;41.20;;;;;;20523;6729;284011;-72
2023/06/17 03:20:42;;;;;;;8.50;7.90;;;19.00;41.30;;;;;;20711;6714;310136;-72
2023/06/17 03:23:20;;;;;;;8.23;7.73;;;19.00;41.30;;;;;;20732;6717;278214;-73
2023/06/17 03:25:53;;;;;;;7.90;7.40;;;19.10;41.20;;;;;;20856;6744;117483;-73
2023/06/17 03:28:29;;;;;;;8.57;7.90;;;18.80;41.40;;;;;;20649;6736;291467;-73
2023/06/17 03:31:06;;;;;;;8.23;7.73;;;18.70;41.70;;;;;;20949;6716;119475;-72
2023/06/17 03:33:42;;;;;;;8.20;7.50;;;18.50;41.80;;;;;;20930;6722;117270;-72
2023/06/17 03:36:28;;;;;;;7.50;6.90;;;18.10;42.20;;;;;;20866;6729;122617;-72
2023/06/17 03:39:06;;;;;;;8.27;7.78;;;17.90;42.70;;;;;;20740;6714;277118;-72
2023/06/17 03:41:39;;;;;;;8.00;7.37;;;18.10;43.30;;;;;;20912;6729;117437;-72
2023/06/17 03:44:17;;;;;;;8.57;7.97;;;18.00;42.90;;;;;;20736;6714;276732;-72
2023/06/17 03:46:50;;;;;;;8.70;8.00;;;18.20;43.10;;;;;;20602;6729;290708;-72
2023/06/17 03:49:25;;;;;;;8.73;8.18;;;18.40;42.60;;;;;;20694;6729;306031;-72
2023/06/17 03:52:01;;;;;;;7.90;7.40;;;18.70;42.10;;;;;;20951;6714;119336;-73
2023/06/17 03:54:42;;;;;;;8.35;7.75;;;18.50;42.40;;;;;;20742;6699;305476;-72
2023/06/17 03:57:18;;;;;;;8.40;7.70;;;18.50;42.30;;;;;;20759;6720;266329;-73
2023/06/17 03:59:54;;;;;;;8.40;7.83;;;18.30;42.30;;;;;;20717;6720;306540;-73
2023/06/17 04:02:29;;;;;;;8.60;7.90;;;18.40;42.50;;;;;;20717;6723;280802;-73
2023/06/17 04:05:06;;;;;;;9.13;8.32;;;18.70;42.30;;;;;;20707;6726;276988;-73
2023/06/17 04:07:44;;;;;;;7.60;7.10;;;18.80;41.90;;;;;;20811;6726;118821;-73
2023/06/17 04:10:16;;;;;;;8.70;8.20;;;18.60;41.90;;;;;;20802;6708;276157;-73
2023/06/17 04:12:52;;;;;;;9.00;8.20;;;18.70;42.10;;;;;;20698;6708;334568;-73
2023/06/17 04:15:27;;;;;;;8.47;7.97;;;18.90;41.70;;;;;;20780;6708;280166;-73
2023/06/17 04:18:03;;;;;;;8.13;7.53;;;19.00;41.50;;;;;;20640;6706;278457;-72
2023/06/17 04:20:40;;;;;;;8.13;7.62;;;19.10;41.30;;;;;;20719;6722;306512;-72
2023/06/17 04:23:14;;;;;;;8.13;7.43;;;19.20;41.20;;;;;;20956;6708;119981;-72
2023/06/17 04:25:52;;;;;;;8.88;8.07;;;18.80;41.80;;;;;;20699;6723;276684;-72
2023/06/17 04:28:31;;;;;;;8.97;8.17;;;18.80;41.70;;;;;;20696;6723;305560;-73
2023/06/17 04:31:10;;;;;;;7.53;7.00;;;19.10;41.60;;;;;;20941;6708;116971;-73
2023/06/17 04:33:40;;;;;;;7.43;7.00;;;18.80;41.60;;;;;;20860;6738;123313;-73
2023/06/17 04:36:18;;;;;;;9.20;8.50;;;18.60;43.00;;;;;;20656;6723;336808;-73
2023/06/17 04:38:51;;;;;;;8.67;7.97;;;18.50;42.40;;;;;;20900;6720;116701;-73
2023/06/17 04:41:27;;;;;;;7.80;7.30;;;18.50;42.40;;;;;;20953;6714;117193;-73
2023/06/17 04:44:02;;;;;;;8.90;8.00;;;18.30;42.70;;;;;;20914;6723;120334;-74
2023/06/17 04:46:38;;;;;;;9.13;8.43;;;18.00;42.90;;;;;;20524;6755;283704;-73
2023/06/17 04:49:13;;;;;;;8.70;7.97;;;18.30;43.30;;;;;;20625;6747;340054;-72
2023/06/17 04:51:49;;;;;;;8.90;8.27;;;18.70;42.70;;;;;;20632;6756;277070;-73
2023/06/17 04:54:25;;;;;;;8.23;7.73;;;19.00;42.10;;;;;;20852;6745;117003;-73
2023/06/17 04:57:00;;;;;;;8.82;8.23;;;18.90;42.20;;;;;;20609;6738;311882;-73
2023/06/17 04:59:36;;;;;;;8.87;8.27;;;19.20;41.90;;;;;;20648;6738;307678;-74
2023/06/17 05:02:13;;;;;;;8.90;8.20;;;19.20;41.90;;;;;;20709;6708;297923;-74
2023/06/17 05:04:47;;;;;;;8.23;7.73;;;19.40;41.30;;;;;;20866;6729;146312;-74
2023/06/17 05:07:23;;;;;;;9.10;8.40;;;19.20;41.50;;;;;;20547;6726;283129;-77
2023/06/17 05:10:00;;;;;;;9.63;8.73;;;19.50;41.30;;;;;;20723;6726;306258;-74
2023/06/17 05:12:35;;;;;;;8.70;7.80;;;19.50;41.30;;;;;;20914;6708;116886;-73
2023/06/17 05:15:11;;;;;;;8.33;7.80;;;19.40;41.50;;;;;;20951;6711;116913;-74
2023/06/17 05:17:46;;;;;;;7.83;7.17;;;19.00;41.90;;;;;;20864;6693;116979;-74
2023/06/17 05:20:25;;;;;;;8.70;7.80;;;19.10;42.80;;;;;;20783;6696;276252;-74
2023/06/17 05:22:58;;;;;;;8.55;8.02;;;19.00;42.60;;;;;;20697;6723;276669;-73
2023/06/17 05:25:34;;;;;;;8.53;7.87;;;19.50;41.90;;;;;;20753;6708;276382;-75
2023/06/17 05:28:10;;;;;;;8.70;8.00;;;19.80;41.40;;;;;;20783;6693;117268;-77
2023/06/17 05:30:46;;;;;;;8.70;8.05;;;19.80;41.80;;;;;;20754;6707;309054;-76
2023/06/17 05:33:25;;;;;;;9.43;8.52;;;19.70;41.30;;;;;;20786;6708;280411;-77
2023/06/17 05:36:00;;;;;;;9.13;8.50;;;20.00;41.10;;;;;;20966;6708;117126;-77
2023/06/17 05:38:32;;;;;;;7.50;7.00;;;19.90;41.30;;;;;;20996;6693;117008;-72
2023/06/17 05:41:09;;;;;;;8.23;7.57;;;19.60;41.60;;;;;;20973;6708;117143;-77
2023/06/17 05:43:46;;;;;;;8.68;8.18;;;19.50;42.00;;;;;;20781;6696;305550;-72
2023/06/17 05:46:21;;;;;;;8.57;7.97;;;19.70;42.20;;;;;;20710;6708;278676;-72
2023/06/17 05:48:56;;;;;;;8.13;7.63;;;20.10;41.60;;;;;;20960;6714;122863;-77
2023/06/17 05:51:32;;;;;;;8.50;7.90;;;20.10;41.50;;;;;;20729;6714;275994;-77
2023/06/17 05:54:07;;;;;;;7.60;7.13;;;20.30;41.20;;;;;;20933;6714;117196;-78
2023/06/17 05:56:43;;;;;;;7.40;6.90;;;20.20;41.20;;;;;;20818;6714;117766;-76
2023/06/17 05:59:19;;;;;;;8.10;7.60;;;20.50;42.20;;;;;;20768;6699;308878;-74
2023/06/17 06:01:56;;;;;;;8.35;7.72;;;20.50;41.50;;;;;;20755;6699;305814;-75
2023/06/17 06:04:32;;;;;;;8.25;7.55;;;21.10;40.50;;;;;;20755;6699;306195;-75
2023/06/17 06:07:07;;;;;;;8.00;7.40;;;21.60;39.90;;;;;;20869;6699;117626;-75
2023/06/17 06:09:44;;;;;;;8.27;7.60;;;22.20;39.50;;;;;;20740;6714;276637;-74
2023/06/17 06:12:19;;;;;;;8.35;7.75;;;22.20;39.50;;;;;;20758;6708;322181;-75
2023/06/17 06:14:57;;;;;;;8.00;7.50;;;23.00;38.20;;;;;;20720;6714;278027;-76
2023/06/17 06:17:34;;;;;;;8.43;7.90;;;23.80;37.10;;;;;;20587;6723;308281;-76
2023/06/17 06:20:10;;;;;;;7.73;7.23;;;24.50;35.90;;;;;;20959;6708;116902;-77
2023/06/17 06:22:43;;;;;;;8.00;7.43;;;24.60;36.40;;;;;;20685;6723;306958;-76
2023/06/17 06:25:18;;;;;;;9.20;7.57;;;25.10;35.20;;;;;;20751;6708;277043;-75
2023/06/17 06:27:55;;;;;;;8.33;7.73;;;25.80;34.30;;;;;;20635;6596;323811;-77
2023/06/17 06:30:31;;;;;;;8.40;7.70;;;26.40;33.40;;;;;;20598;6740;306713;-68
2023/06/17 06:33:07;;;;;;;8.33;7.73;;;27.40;31.80;;;;;;20710;6714;276193;-74
2023/06/17 06:35:43;;;;;;;7.95;7.32;;;27.40;31.80;;;;;;20783;6699;283528;-75
2023/06/17 06:38:18;;;;;;;7.10;6.50;;;27.80;31.00;;;;;;20795;6764;117727;-74
2023/06/17 06:40:55;;;;;;;7.00;6.57;;;27.80;31.70;;;;;;20833;6723;122343;-75
2023/06/17 06:43:30;;;;;;;6.50;6.20;;;27.70;32.30;;;;;;20856;6741;119231;-75
2023/06/17 06:46:07;;;;;;;7.20;6.73;;;28.30;30.10;;;;;;20734;6708;307650;-74
2023/06/17 06:48:45;;;;;;;7.05;6.45;;;28.30;30.20;;;;;;20727;6708;305358;-74
2023/06/17 06:51:21;;;;;;;6.83;6.43;;;29.20;29.30;;;;;;20748;6708;305656;-75
2023/06/17 06:53:56;;;;;;;6.47;6.00;;;29.90;28.80;;;;;;20974;6708;116953;-74
2023/06/17 06:56:33;;;;;;;6.83;6.33;;;30.00;29.10;;;;;;20895;6708;122021;-77
2023/06/17 06:59:09;;;;;;;7.07;6.60;;;29.90;29.40;;;;;;20713;6723;278126;-75
2023/06/17 07:01:44;;;;;;;7.23;6.73;;;30.30;28.00;;;;;;20920;6723;116831;-75
2023/06/17 07:04:21;;;;;;;5.77;5.37;;;30.60;28.60;;;;;;20875;6741;121186;-75
2023/06/17 07:06:56;;;;;;;6.70;6.30;;;30.50;28.50;;;;;;20649;6708;307749;-75
2023/06/17 07:09:32;;;;;;;6.07;5.68;;;30.90;27.10;;;;;;20984;6708;116774;-75
2023/06/17 07:12:08;;;;;;;5.93;5.47;;;31.00;27.60;;;;;;20923;6708;117356;-75
2023/06/17 07:14:43;;;;;;;6.37;5.93;;;31.00;27.80;;;;;;20681;6738;306844;-75
2023/06/17 07:17:20;;;;;;;6.00;5.60;;;31.80;26.90;;;;;;20636;6711;310818;-75
2023/06/17 07:19:55;;;;;;;5.90;5.60;;;31.70;26.30;;;;;;20479;6699;310401;-75
2023/06/17 07:22:32;;;;;;;6.77;6.10;;;32.30;26.10;;;;;;20652;6756;275715;-75
2023/06/17 07:25:08;;;;;;;6.53;6.10;;;32.20;26.00;;;;;;20750;6708;284952;-75
2023/06/17 07:27:43;;;;;;;6.20;5.80;;;32.30;26.00;;;;;;20526;6738;310080;-74
2023/06/17 07:30:19;;;;;;;6.37;5.97;;;32.20;25.60;;;;;;20796;6741;117988;-75
2023/06/17 07:32:54;;;;;;;5.23;4.93;;;31.90;26.10;;;;;;20850;6738;122208;-74
2023/06/17 07:35:30;;;;;;;6.13;5.73;;;31.40;26.70;;;;;;20757;6708;303085;-74
2023/06/17 07:38:09;;;;;;;6.20;5.90;;;31.40;26.70;;;;;;20486;6738;341518;-74
2023/06/17 07:40:47;;;;;;;5.80;5.50;;;31.50;26.60;;;;;;20845;6729;117403;-74
2023/06/17 07:43:21;;;;;;;5.93;5.63;;;31.20;26.70;;;;;;20656;6738;306698;-74
2023/06/17 07:45:54;;;;;;;6.23;5.93;;;31.30;27.10;;;;;;20871;6738;117055;-75
2023/06/17 07:48:31;;;;;;;5.90;5.60;;;30.70;27.40;;;;;;20858;6738;118358;-74
2023/06/17 07:51:07;;;;;;;6.60;6.05;;;30.70;27.40;;;;;;20727;6716;306063;-74
2023/06/17 07:53:42;;;;;;;6.70;6.07;;;30.90;28.10;;;;;;20844;6752;118019;-74
2023/06/17 07:56:18;;;;;;;6.43;6.03;;;30.90;28.60;;;;;;20632;6734;279410;-74
2023/06/17 07:58:54;;;;;;;6.57;5.97;;;30.90;28.00;;;;;;20665;6731;330812;-74
2023/06/17 08:01:29;;;;;;;6.20;5.90;;;31.20;27.40;;;;;;20857;6742;117693;-74
2023/06/17 08:04:05;;;;;;;6.30;5.90;;;31.10;27.60;;;;;;20667;6742;306464;-74
2023/06/17 08:06:41;;;;;;;6.27;5.67;;;31.30;27.60;;;;;;20708;6752;119148;-74
2023/06/17 08:09:18;;;;;;;5.80;5.50;;;31.20;27.50;;;;;;20947;6716;117332;-74
2023/06/17 08:11:54;;;;;;;6.20;5.60;;;31.10;27.60;;;;;;20721;6725;305013;-74
2023/06/17 08:14:30;;;;;;;5.67;5.37;;;31.30;27.30;;;;;;20802;6752;129143;-76
2023/06/17 08:17:06;;;;;;;6.03;5.63;;;31.60;26.90;;;;;;20551;6738;308506;-74
2023/06/17 08:19:42;;;;;;;6.03;5.47;;;31.50;26.90;;;;;;20858;6738;119147;-74
2023/06/17 08:22:28;;;;;;;;;;;;;;;;;;;;;
2023/06/17 08:24:53;;;;;;;5.60;5.20;;;31.70;26.60;;;;;;20890;6729;117537;-74
2023/06/17 08:27:29;;;;;;;5.80;5.40;;;31.70;26.50;;;;;;20587;6738;278243;-74
2023/06/17 08:30:06;;;;;;;5.70;5.33;;;31.90;26.10;;;;;;20967;6708;117543;-74
2023/06/17 08:32:41;;;;;;;6.03;5.57;;;31.80;26.20;;;;;;20901;6693;120623;-75
2023/06/17 08:35:17;;;;;;;6.97;5.33;;;31.60;26.50;;;;;;20973;6711;119103;-74
2023/06/17 08:37:53;;;;;;;5.73;5.40;;;31.60;26.90;;;;;;20581;6714;283635;-74
2023/06/17 08:40:55;;;;;;;;;;;;;;;;;;;;;
2023/06/17 08:43:21;;;;;;;5.50;5.00;;;32.30;25.00;;;;;;20865;6770;120141;-75
2023/06/17 08:45:58;;;;;;;5.80;5.40;;;32.40;25.20;;;;;;20875;6714;118809;-74
2023/06/17 08:48:34;;;;;;;6.90;5.80;;;32.50;24.50;;;;;;20716;6722;295479;-75
2023/06/17 08:51:10;;;;;;;6.37;5.77;;;32.50;24.60;;;;;;20801;6726;117132;-74
2023/06/17 08:53:45;;;;;;;6.00;5.50;;;32.50;24.70;;;;;;20685;6723;277090;-74
2023/06/17 08:56:22;;;;;;;5.87;5.37;;;33.10;24.00;;;;;;20626;6725;309854;-74
2023/06/17 08:58:57;;;;;;;6.15;5.62;;;33.00;23.90;;;;;;20618;6723;317870;-76
2023/06/17 09:01:34;;;;;;;5.70;5.23;;;33.40;23.70;;;;;;20677;6723;276581;-73
2023/06/17 09:04:09;;;;;;;6.03;5.53;;;33.60;22.90;;;;;;20751;6705;276546;-73
2023/06/17 09:06:47;;;;;;;8.00;5.23;;;33.90;21.90;;;;;;20601;6725;307532;-72
2023/06/17 09:09:21;;;;;;;5.93;5.37;;;33.80;21.80;;;;;;20921;6714;116747;-74
2023/06/17 09:11:57;;;;;;;5.27;4.87;;;33.70;22.20;;;;;;20906;6728;116782;-74
2023/06/17 09:14:34;;;;;;;5.87;5.33;;;33.40;22.60;;;;;;20694;6721;305161;-76
2023/06/17 09:17:11;;;;;;;5.93;5.57;;;33.50;22.70;;;;;;20649;6701;307476;-74
2023/06/17 09:19:47;;;;;;;5.93;5.37;;;33.80;22.40;;;;;;20984;6701;117279;-75
2023/06/17 09:22:22;;;;;;;5.47;5.17;;;33.80;22.50;;;;;;20784;6699;279747;-75
2023/06/17 09:24:58;;;;;;;9.43;5.43;;;34.00;22.10;;;;;;20920;6714;117345;-73
2023/06/17 09:27:35;;;;;;;5.60;5.10;;;34.10;22.40;;;;;;20519;6741;313218;-73
2023/06/17 09:30:11;;;;;;;5.33;4.93;;;34.10;21.80;;;;;;20960;6716;118345;-72
2023/06/17 09:32:49;;;;;;;5.17;4.80;;;34.10;22.00;;;;;;20892;6746;117005;-72
2023/06/17 09:35:22;;;;;;;6.50;4.80;;;34.00;22.20;;;;;;20765;6708;309382;-72
2023/06/17 09:37:57;;;;;;;5.22;4.82;;;34.20;21.90;;;;;;20592;6713;340014;-73
2023/06/17 09:40:33;;;;;;;4.80;4.40;;;34.50;21.30;;;;;;20904;6741;121308;-74
2023/06/17 09:43:10;;;;;;;5.25;4.90;;;34.60;21.20;;;;;;20700;6729;335352;-74
2023/06/17 09:45:49;;;;;;;4.80;4.47;;;34.60;20.40;;;;;;20966;6711;116822;-73
2023/06/17 09:48:24;;;;;;;5.07;4.67;;;34.70;20.80;;;;;;20548;6779;307414;-72
2023/06/17 09:50:56;;;;;;;4.67;4.40;;;34.70;19.90;;;;;;20970;6708;120445;-72
2023/06/17 09:53:31;;;;;;;4.70;4.30;;;34.70;20.40;;;;;;20670;6708;276178;-73
2023/06/17 09:56:10;;;;;;;5.30;4.00;;;34.90;19.60;;;;;;20987;6708;66897;-72
2023/06/17 09:58:44;;;;;;;4.40;4.10;;;35.00;19.60;;;;;;20782;6708;276551;-72
2023/06/17 10:01:19;;;;;;;4.10;3.80;;;35.20;19.50;;;;;;20716;6723;306860;-73
2023/06/17 10:03:58;;;;;;;4.50;4.20;;;35.70;19.30;;;;;;20740;6716;306580;-73
2023/06/17 10:06:34;;;;;;;4.45;4.25;;;35.70;19.30;;;;;;20630;6716;308131;-73
2023/06/17 10:09:10;;;;;;;4.50;4.20;;;35.70;18.40;;;;;;20730;6716;306246;-73
2023/06/17 10:11:45;;;;;;;4.47;4.07;;;35.40;18.40;;;;;;20936;6720;116923;-73
2023/06/17 10:14:24;;;;;;;4.30;4.03;;;34.70;18.60;;;;;;20920;6726;117092;-73
2023/06/17 10:17:00;;;;;;;4.33;4.10;;;33.90;19.30;;;;;;20670;6707;312398;-73
2023/06/17 10:19:35;;;;;;;4.57;4.30;;;33.70;19.80;;;;;;20935;6716;121217;-73
2023/06/17 10:22:11;;;;;;;4.50;4.17;;;33.60;20.20;;;;;;20877;6740;118724;-72
2023/06/17 10:24:47;;;;;;;4.80;4.20;;;33.80;20.30;;;;;;20657;6721;277327;-72
2023/06/17 10:27:23;;;;;;;4.75;4.15;;;33.70;20.30;;;;;;20566;6729;337645;-72
2023/06/17 10:29:58;;;;;;;4.53;4.30;;;34.20;19.40;;;;;;20913;6735;116734;-72
2023/06/17 10:32:34;;;;;;;4.43;4.07;;;34.30;19.70;;;;;;20622;6723;312059;-71
2023/06/17 10:35:10;;;;;;;3.80;3.70;;;34.60;19.50;;;;;;20933;6723;117119;-72
2023/06/17 10:37:50;;;;;;;4.50;4.10;;;34.60;19.60;;;;;;20801;6723;117320;-72
2023/06/17 10:40:35;;;;;;;4.47;4.17;;;34.50;19.80;;;;;;21028;6708;118504;-72
2023/06/17 10:43:06;;;;;;;4.30;4.10;;;34.50;19.80;;;;;;20912;6725;117197;-72
2023/06/17 10:45:44;;;;;;;4.27;4.07;;;34.40;19.80;;;;;;20918;6729;123233;-73
2023/06/17 10:48:20;;;;;;;4.75;4.45;;;34.30;19.80;;;;;;20522;6782;311645;-73
2023/06/17 10:51:09;;;;;;;4.67;4.37;;;34.40;19.90;;;;;;20672;6738;306122;-73
2023/06/17 10:53:51;;;;;;;4.43;4.10;;;34.70;19.40;;;;;;20891;6741;123016;-72
2023/06/17 10:56:27;;;;;;;4.77;4.30;;;34.50;19.50;;;;;;20905;6708;116838;-72
2023/06/17 10:59:03;;;;;;;5.37;4.60;;;34.50;19.50;;;;;;20699;6723;276753;-72
2023/06/17 11:01:42;;;;;;;4.60;4.40;;;34.70;20.10;;;;;;20867;6718;117068;-72
2023/06/17 11:04:18;;;;;;;4.90;4.50;;;34.50;20.10;;;;;;20937;6722;116726;-72
2023/06/17 11:06:55;;;;;;;4.70;4.43;;;34.50;20.00;;;;;;20600;6718;307979;-72
2023/06/17 11:09:31;;;;;;;5.15;4.70;;;35.00;19.80;;;;;;20720;6723;290430;-72
2023/06/17 11:12:07;;;;;;;6.17;4.67;;;35.30;20.10;;;;;;20714;6723;279904;-72
2023/06/17 11:14:43;;;;;;;5.40;4.85;;;35.30;20.10;;;;;;20703;6723;286058;-72
2023/06/17 11:17:21;;;;;;;5.15;4.75;;;35.50;19.60;;;;;;20546;6738;309035;-71
2023/06/17 11:20:00;;;;;;;4.90;4.70;;;35.50;19.10;;;;;;20894;6726;116966;-72
2023/06/17 11:22:36;;;;;;;5.20;4.80;;;35.10;19.20;;;;;;20721;6714;278195;-72
2023/06/17 11:25:12;;;;;;;6.50;4.77;;;34.70;19.90;;;;;;20935;6735;117920;-72
2023/06/17 11:27:47;;;;;;;5.10;4.70;;;34.20;19.60;;;;;;20502;6743;278668;-71
2023/06/17 11:30:25;;;;;;;5.30;4.90;;;34.00;19.10;;;;;;20723;6720;304723;-72
2023/06/17 11:32:59;;;;;;;5.00;4.70;;;33.90;19.90;;;;;;20673;6728;339952;-72
2023/06/17 11:35:34;;;;;;;5.07;4.77;;;33.90;19.50;;;;;;20868;6738;120955;-73
2023/06/17 11:38:11;;;;;;;5.60;5.10;;;33.60;19.80;;;;;;20540;6738;278143;-73
2023/06/17 11:40:55;;;;;;;5.17;4.87;;;33.60;20.10;;;;;;20691;6723;310600;-73
2023/06/17 11:43:30;;;;;;;4.27;4.07;;;33.60;20.10;;;;;;20931;6723;116811;-74
2023/06/17 11:46:05;;;;;;;5.03;4.73;;;33.40;20.40;;;;;;20655;6723;306484;-73
2023/06/17 11:48:41;;;;;;;4.93;4.60;;;33.40;20.50;;;;;;20748;6708;276028;-74
2023/06/17 11:51:18;;;;;;;5.60;4.80;;;33.80;20.70;;;;;;20666;6744;307112;-73
2023/06/17 11:53:54;;;;;;;5.57;4.97;;;34.10;20.50;;;;;;20713;6714;306038;-73
2023/06/17 11:56:32;;;;;;;5.10;4.70;;;34.40;20.20;;;;;;20654;6725;306426;-76
2023/06/17 11:59:06;;;;;;;5.40;4.90;;;34.50;21.10;;;;;;20977;6708;118012;-74
2023/06/17 12:01:42;;;;;;;5.37;4.90;;;34.50;20.90;;;;;;20697;6723;310736;-74
2023/06/17 12:04:18;;;;;;;5.00;4.70;;;34.40;20.30;;;;;;20750;6708;276434;-75
2023/06/17 12:06:53;;;;;;;5.03;4.73;;;34.50;20.40;;;;;;20606;6723;303789;-75
2023/06/17 12:09:30;;;;;;;5.10;4.80;;;34.60;20.00;;;;;;20733;6717;305884;-74
2023/06/17 12:12:09;;;;;;;5.40;5.00;;;34.70;19.80;;;;;;20722;6716;305500;-74
2023/06/17 12:14:42;;;;;;;5.17;4.77;;;34.80;19.70;;;;;;20942;6709;116831;-74
2023/06/17 12:17:22;;;;;;;5.33;4.60;;;34.70;19.70;;;;;;20762;6731;121542;-74
2023/06/17 12:20:01;;;;;;;4.93;4.63;;;34.20;20.00;;;;;;20893;6741;118518;-74
2023/06/17 12:22:35;;;;;;;4.80;4.60;;;33.90;19.90;;;;;;20872;6732;119147;-73
2023/06/17 12:28:50;;;;;;;4.83;4.47;;;33.30;20.20;;;;;;20850;6736;119568;-74
2023/06/17 12:31:25;;;;;;;5.30;4.80;;;33.00;20.30;;;;;;20672;6737;305301;-75
2023/06/17 12:33:59;;;;;;;5.40;5.00;;;33.00;19.90;;;;;;20940;6722;117194;-75
2023/06/17 12:36:34;;;;;;;5.30;5.00;;;32.80;19.90;;;;;;20855;6711;123238;-74
2023/06/17 12:39:10;;;;;;;5.10;4.70;;;32.50;20.10;;;;;;20707;6721;278542;-74
2023/06/17 12:41:46;;;;;;;5.20;4.80;;;32.50;20.30;;;;;;20673;6735;277149;-74
2023/06/17 12:44:22;;;;;;;4.80;4.53;;;32.70;19.90;;;;;;20683;6732;308034;-74
2023/06/17 12:46:57;;;;;;;5.23;4.90;;;32.80;19.80;;;;;;20578;6728;301146;-74
2023/06/17 12:49:33;;;;;;;4.67;4.23;;;33.00;20.00;;;;;;21013;6699;116777;-74
2023/06/17 12:52:08;;;;;;;5.03;4.77;;;32.90;19.80;;;;;;20744;6714;292118;-73
2023/06/17 12:54:44;;;;;;;5.37;4.97;;;33.00;19.70;;;;;;20724;6714;305913;-73
2023/06/17 12:57:22;;;;;;;5.57;4.73;;;33.20;20.00;;;;;;20788;6729;117353;-74
2023/06/17 12:59:55;;;;;;;4.37;4.03;;;33.20;20.00;;;;;;20901;6729;116750;-74
2023/06/17 13:02:32;;;;;;;4.43;4.23;;;32.90;20.30;;;;;;20936;6729;122656;-74
2023/06/17 13:05:07;;;;;;;6.90;4.73;;;32.70;20.50;;;;;;20945;6714;121522;-74
2023/06/17 13:07:43;;;;;;;5.07;4.60;;;32.50;20.60;;;;;;20550;6729;311397;-74
2023/06/17 13:10:19;;;;;;;5.00;4.60;;;32.70;21.10;;;;;;20686;6732;286372;-73
2023/06/17 13:12:56;;;;;;;5.07;4.67;;;33.40;19.30;;;;;;20717;6714;276603;-74
2023/06/17 13:15:31;;;;;;;4.70;4.30;;;33.40;19.20;;;;;;20753;6714;276569;-73
2023/06/17 13:18:08;;;;;;;4.70;4.40;;;33.60;19.60;;;;;;20820;6706;118252;-73
2023/06/17 13:20:44;;;;;;;4.62;4.22;;;33.60;19.60;;;;;;20681;6721;310631;-73
2023/06/17 13:23:19;;;;;;;4.87;4.57;;;33.70;19.40;;;;;;20902;6729;119156;-73
2023/06/17 13:25:56;;;;;;;5.20;4.80;;;33.50;19.30;;;;;;20664;6721;341320;-72